Terminal Aerodrome Forecast
Issued by NWS

Home | Current Version | Previous Version | Text Only | Print | Product List | Glossary On
Versions: 1 2 3 4 5 6 7 8 9 10 11 12 13 14 15 16 17 18 19 20 21
000
FTUS45 KRIW 241124
TAFJAC
TAF
KJAC 241124Z 2412/2512 03010KT 3SM -SN SCT015 OVC020
     FM241600 VRB04KT 6SM -SN VCSH SCT025 BKN040
     FM242200 VRB04KT 1 1/2SM -SN SCT008 OVC013
     FM250200 01007KT 5SM -SN SCT013 OVC020
      AMD LTD TO CLD VIS AND WIND=

USA.gov is the U.S. government's official web portal to all federal, state and local government web resources and services.